createdAt,value
2022-09-07T00:01:07.837Z,17.80
2022-09-07T00:03:36.816Z,17.80
2022-09-07T00:06:08.804Z,17.80
2022-09-07T00:08:37.317Z,17.90
2022-09-07T00:11:09.100Z,17.90
2022-09-07T00:13:40.121Z,17.90
2022-09-07T00:16:11.062Z,17.80
2022-09-07T00:18:45.090Z,17.70
2022-09-07T00:21:14.666Z,17.70
2022-09-07T00:23:42.873Z,17.80
2022-09-07T00:26:14.799Z,17.70
2022-09-07T00:28:44.077Z,17.70
2022-09-07T00:31:14.307Z,17.60
2022-09-07T00:33:43.099Z,17.60
2022-09-07T00:36:11.667Z,17.70
2022-09-07T00:38:40.043Z,17.70
2022-09-07T00:41:08.559Z,17.70
2022-09-07T00:43:41.318Z,17.80
2022-09-07T00:46:15.510Z,17.80
2022-09-07T00:48:48.659Z,17.70
2022-09-07T00:51:22.792Z,17.50
2022-09-07T00:53:54.394Z,17.50
2022-09-07T00:56:25.444Z,17.60
2022-09-07T00:58:55.399Z,17.50
2022-09-07T01:01:24.111Z,17.60
2022-09-07T01:03:54.959Z,17.50
2022-09-07T01:06:26.277Z,17.70
2022-09-07T01:08:56.274Z,17.70
2022-09-07T01:11:25.006Z,17.60
2022-09-07T01:13:58.036Z,17.50
2022-09-07T01:16:42.583Z,17.40
2022-09-07T01:19:34.693Z,17.30
2022-09-07T01:22:19.460Z,17.40
2022-09-07T01:25:00.065Z,17.50
2022-09-07T01:28:02.947Z,17.50
2022-09-07T01:30:36.131Z,17.40
2022-09-07T01:33:18.132Z,17.40
2022-09-07T01:35:52.460Z,17.30
2022-09-07T01:38:27.501Z,17.30
2022-09-07T01:41:03.222Z,17.30
2022-09-07T01:43:40.622Z,17.30
2022-09-07T01:46:22.063Z,17.20
2022-09-07T01:48:53.468Z,17.30
2022-09-07T01:51:23.622Z,17.30
2022-09-07T01:53:55.771Z,17.30
2022-09-07T01:56:31.154Z,17.30
2022-09-07T01:59:04.803Z,17.30
2022-09-07T02:01:37.211Z,17.30
2022-09-07T02:04:09.921Z,17.30
2022-09-07T02:06:43.770Z,17.30
2022-09-07T02:09:19.994Z,17.20
2022-09-07T02:11:50.112Z,17.20
2022-09-07T02:14:23.744Z,17.30
2022-09-07T02:16:57.068Z,17.30
2022-09-07T02:19:28.060Z,17.20
2022-09-07T02:22:01.822Z,17.30
2022-09-07T02:24:35.271Z,17.20
2022-09-07T02:27:08.382Z,17.20
2022-09-07T02:29:38.470Z,17.20
2022-09-07T02:32:07.176Z,17.10
2022-09-07T02:34:35.480Z,17.20
2022-09-07T02:37:07.352Z,17.10
2022-09-07T02:39:35.612Z,17.10
2022-09-07T02:42:04.257Z,17.10
2022-09-07T02:44:36.682Z,17.10
2022-09-07T02:47:20.839Z,17.00
2022-09-07T02:50:08.892Z,17.00
2022-09-07T02:52:47.033Z,17.00
2022-09-07T02:55:27.805Z,17.00
2022-09-07T02:58:17.542Z,17.00
2022-09-07T03:00:55.431Z,17.00
2022-09-07T03:03:34.575Z,17.00
2022-09-07T03:06:05.696Z,17.00
2022-09-07T03:08:39.189Z,17.00
2022-09-07T03:11:08.465Z,16.90
2022-09-07T03:13:36.653Z,16.90
2022-09-07T03:16:05.003Z,17.00
2022-09-07T03:18:34.554Z,17.00
2022-09-07T03:21:02.700Z,16.90
2022-09-07T03:23:30.894Z,16.80
2022-09-07T03:25:58.996Z,16.80
2022-09-07T03:28:27.346Z,16.90
2022-09-07T03:30:55.617Z,16.90
2022-09-07T03:33:23.893Z,16.90
2022-09-07T03:36:02.367Z,16.90
2022-09-07T03:38:31.459Z,16.80
2022-09-07T03:41:01.183Z,16.80
2022-09-07T03:43:29.828Z,16.90
2022-09-07T03:45:59.402Z,16.90
2022-09-07T03:48:27.916Z,16.80
2022-09-07T03:51:02.553Z,16.80
2022-09-07T03:53:33.122Z,16.90
2022-09-07T03:56:02.991Z,16.80
2022-09-07T03:58:32.780Z,16.80
2022-09-07T04:01:05.361Z,16.80
2022-09-07T04:03:33.614Z,16.80
2022-09-07T04:06:04.096Z,16.80
2022-09-07T04:08:34.076Z,16.80
2022-09-07T04:11:04.327Z,16.80
2022-09-07T04:13:34.883Z,16.80
2022-09-07T04:16:10.943Z,16.80
2022-09-07T04:18:39.143Z,16.80
2022-09-07T04:21:08.939Z,16.80
2022-09-07T04:23:39.242Z,16.80
2022-09-07T04:26:08.186Z,16.80
2022-09-07T04:28:36.325Z,16.80
2022-09-07T04:31:04.511Z,16.80
2022-09-07T04:33:32.911Z,16.70
2022-09-07T04:36:01.849Z,16.70
2022-09-07T04:38:31.780Z,16.60
2022-09-07T04:41:01.790Z,16.60
2022-09-07T04:43:30.178Z,16.70
2022-09-07T04:45:58.957Z,16.70
2022-09-07T04:48:28.147Z,16.70
2022-09-07T04:50:56.460Z,16.70
2022-09-07T04:53:24.670Z,16.60
2022-09-07T04:55:54.130Z,16.60
2022-09-07T04:58:22.328Z,16.70
2022-09-07T05:00:50.656Z,16.70
2022-09-07T05:03:18.911Z,16.70
2022-09-07T05:05:47.184Z,16.70
2022-09-07T05:08:15.333Z,16.70
2022-09-07T05:10:53.661Z,16.70
2022-09-07T05:13:22.087Z,16.70
2022-09-07T05:15:50.281Z,16.70
2022-09-07T05:18:18.495Z,16.70
2022-09-07T05:20:46.687Z,16.70
2022-09-07T05:23:14.883Z,16.80
2022-09-07T05:25:44.651Z,16.80
2022-09-07T05:28:19.302Z,16.90
2022-09-07T05:36:25.715Z,16.90
2022-09-07T05:38:54.581Z,17.00
2022-09-07T05:41:24.352Z,17.10
2022-09-07T05:46:43.122Z,17.20
2022-09-07T05:49:36.406Z,17.30
2022-09-07T05:52:04.826Z,17.70
2022-09-07T05:54:32.981Z,18.30
2022-09-07T05:57:03.105Z,18.60
2022-09-07T05:59:32.716Z,18.30
2022-09-07T06:02:01.663Z,18.30
2022-09-07T06:04:29.909Z,18.20
2022-09-07T06:07:21.065Z,18.00
2022-09-07T06:12:34.647Z,18.10
2022-09-07T06:15:05.523Z,18.20
2022-09-07T06:17:33.943Z,18.40
2022-09-07T06:20:02.227Z,18.40
2022-09-07T06:22:31.292Z,18.40
2022-09-07T06:25:00.132Z,18.40
2022-09-07T06:27:28.622Z,18.40
2022-09-07T06:29:57.035Z,18.50
2022-09-07T06:35:11.319Z,18.90
2022-09-07T06:37:39.669Z,19.10
2022-09-07T06:40:11.075Z,19.20
2022-09-07T06:42:39.561Z,19.10
2022-09-07T06:45:11.412Z,19.10
2022-09-07T06:47:41.650Z,19.10
2022-09-07T06:50:10.890Z,19.00
2022-09-07T06:55:28.652Z,18.80
2022-09-07T06:57:57.029Z,18.80
2022-09-07T07:00:25.256Z,18.90
2022-09-07T07:02:54.872Z,18.90
2022-09-07T07:05:23.083Z,18.90
2022-09-07T07:07:52.567Z,18.90
2022-09-07T07:10:24.548Z,18.80
2022-09-07T07:12:57.353Z,18.90
2022-09-07T07:15:27.631Z,18.90
2022-09-07T07:18:05.182Z,18.80
2022-09-07T07:20:37.924Z,18.80
2022-09-07T07:23:06.606Z,18.70
2022-09-07T07:25:35.449Z,18.60
2022-09-07T07:30:56.333Z,18.60
2022-09-07T07:33:26.942Z,18.50
2022-09-07T07:35:55.065Z,18.50
2022-09-07T07:44:00.558Z,18.50
2022-09-07T07:46:30.302Z,18.50
2022-09-07T07:49:00.176Z,18.40
2022-09-07T07:51:28.824Z,18.30
2022-09-07T07:53:58.172Z,18.20
2022-09-07T07:56:26.709Z,18.10
2022-09-07T07:58:54.938Z,18.10
2022-09-07T08:01:23.250Z,18.10
2022-09-07T08:03:51.977Z,18.10
2022-09-07T08:06:22.642Z,18.00
2022-09-07T08:08:51.172Z,18.00
2022-09-07T08:11:22.006Z,17.90
2022-09-07T08:13:52.109Z,18.00
2022-09-07T08:16:20.596Z,18.00
2022-09-07T08:18:49.032Z,18.10
2022-09-07T08:21:17.697Z,18.20
2022-09-07T08:23:47.038Z,18.40
2022-09-07T08:26:15.069Z,18.40
2022-09-07T08:28:45.393Z,18.50
2022-09-07T08:31:15.117Z,18.60
2022-09-07T08:33:43.387Z,18.60
2022-09-07T08:36:14.049Z,18.70
2022-09-07T08:38:42.656Z,18.80
2022-09-07T08:41:48.092Z,18.90
2022-09-07T08:44:23.585Z,19.10
2022-09-07T08:46:55.890Z,19.10
2022-09-07T08:49:28.884Z,19.10
2022-09-07T08:52:00.683Z,19.10
2022-09-07T08:54:29.187Z,19.10
2022-09-07T09:00:03.311Z,19.30
2022-09-07T09:02:35.151Z,19.10
2022-09-07T09:05:17.470Z,19.10
2022-09-07T09:07:57.607Z,19.10
2022-09-07T09:10:35.806Z,19.10
2022-09-07T09:13:16.674Z,19.30
2022-09-07T09:16:00.332Z,19.30
2022-09-07T09:18:47.924Z,19.40
2022-09-07T09:21:18.712Z,19.70
2022-09-07T09:23:49.640Z,20.00
2022-09-07T09:26:23.418Z,20.00
2022-09-07T09:28:53.155Z,20.40
2022-09-07T09:31:23.181Z,20.80
2022-09-07T09:34:09.918Z,20.90
2022-09-07T09:36:43.371Z,21.30
2022-09-07T09:39:32.741Z,21.70
2022-09-07T09:42:14.976Z,21.70
2022-09-07T09:44:45.423Z,22.30
2022-09-07T09:47:30.378Z,22.50
2022-09-07T09:50:00.853Z,22.80
2022-09-07T09:52:42.201Z,22.60
2022-09-07T09:55:34.869Z,22.20
2022-09-07T10:03:58.334Z,22.50
2022-09-07T10:06:29.479Z,23.00
2022-09-07T10:08:58.935Z,23.10
2022-09-07T10:14:35.223Z,22.40
2022-09-07T10:17:13.288Z,22.40
2022-09-07T10:19:43.978Z,22.40
2022-09-07T10:22:34.608Z,22.10
2022-09-07T10:25:04.538Z,22.00
2022-09-07T10:27:35.177Z,22.30
2022-09-07T10:30:06.846Z,22.60
2022-09-07T10:32:51.013Z,22.60
2022-09-07T10:35:25.196Z,23.00
2022-09-07T10:38:02.547Z,23.30
2022-09-07T10:40:35.160Z,23.60
2022-09-07T10:43:24.028Z,23.90
2022-09-07T10:46:03.543Z,24.50
2022-09-07T10:48:38.708Z,25.60
2022-09-07T10:51:14.648Z,26.80
2022-09-07T10:53:47.558Z,27.60
2022-09-07T10:56:21.886Z,27.50
2022-09-07T10:59:04.263Z,27.40
2022-09-07T11:01:43.477Z,27.80
2022-09-07T11:04:33.116Z,27.40
2022-09-07T11:07:10.272Z,27.50
2022-09-07T11:09:52.823Z,26.80
2022-09-07T11:12:28.056Z,26.00
2022-09-07T11:15:06.763Z,25.70
2022-09-07T11:17:44.225Z,25.30
2022-09-07T11:20:23.137Z,25.00
2022-09-07T11:22:55.080Z,25.10
2022-09-07T11:25:30.009Z,26.00
2022-09-07T11:28:02.178Z,26.10
2022-09-07T11:31:00.597Z,25.70
2022-09-07T11:33:33.022Z,25.80
2022-09-07T11:36:11.320Z,25.80
2022-09-07T11:38:46.310Z,25.80
2022-09-07T11:41:22.181Z,24.90
2022-09-07T11:44:01.433Z,24.50
2022-09-07T11:46:35.526Z,24.60
2022-09-07T11:49:07.774Z,25.00
2022-09-07T11:51:42.883Z,25.00
2022-09-07T11:54:43.187Z,24.40
2022-09-07T11:57:35.131Z,24.60
2022-09-07T12:00:09.052Z,24.50
2022-09-07T12:03:31.505Z,24.30
2022-09-07T12:06:27.075Z,23.90
2022-09-07T12:09:10.482Z,24.00
2022-09-07T12:12:08.090Z,24.90
2022-09-07T12:14:45.703Z,25.10
2022-09-07T12:17:27.692Z,25.10
2022-09-07T12:20:20.063Z,25.70
2022-09-07T12:23:04.335Z,26.50
2022-09-07T12:25:35.755Z,27.00
2022-09-07T12:28:04.101Z,27.70
2022-09-07T12:30:53.414Z,28.20
2022-09-07T12:33:27.816Z,27.30
2022-09-07T12:35:58.824Z,26.20
2022-09-07T12:39:00.399Z,25.30
2022-09-07T12:42:32.666Z,25.80
2022-09-07T12:45:34.419Z,25.60
2022-09-07T12:48:09.052Z,25.50
2022-09-07T12:50:42.665Z,26.00
2022-09-07T12:53:29.875Z,26.40
2022-09-07T12:56:20.776Z,26.50
2022-09-07T12:59:03.997Z,26.00
2022-09-07T13:01:44.177Z,25.80
2022-09-07T13:04:28.473Z,26.50
2022-09-07T13:07:18.675Z,27.10
2022-09-07T13:09:57.470Z,27.20
2022-09-07T13:13:02.108Z,27.60
2022-09-07T13:15:44.181Z,27.00
2022-09-07T13:18:28.355Z,27.50
2022-09-07T13:21:32.223Z,27.20
2022-09-07T13:24:46.791Z,26.50
2022-09-07T13:27:44.704Z,27.00
2022-09-07T13:30:31.845Z,26.80
2022-09-07T13:33:36.974Z,26.90
2022-09-07T13:36:14.378Z,26.30
2022-09-07T13:38:45.028Z,26.00
2022-09-07T13:41:16.912Z,25.70
2022-09-07T13:43:48.880Z,25.60
2022-09-07T13:46:40.810Z,25.70
2022-09-07T13:49:22.720Z,25.70
2022-09-07T13:52:01.066Z,25.20
2022-09-07T13:54:47.495Z,25.10
2022-09-07T13:57:23.348Z,25.10
2022-09-07T13:59:52.866Z,25.00
2022-09-07T14:02:24.855Z,25.10
2022-09-07T14:04:55.824Z,25.40
2022-09-07T14:07:26.631Z,25.50
2022-09-07T14:10:12.987Z,25.50
2022-09-07T14:12:46.096Z,25.40
2022-09-07T14:15:23.619Z,25.40
2022-09-07T14:18:03.026Z,25.90
2022-09-07T14:20:32.367Z,25.80
2022-09-07T14:23:02.095Z,25.70
2022-09-07T14:25:30.368Z,25.10
2022-09-07T14:28:00.380Z,24.90
2022-09-07T14:30:30.303Z,25.00
2022-09-07T14:33:01.658Z,25.30
2022-09-07T14:35:33.530Z,25.50
2022-09-07T14:38:07.923Z,25.50
2022-09-07T14:40:36.727Z,25.40
2022-09-07T14:43:05.170Z,25.30
2022-09-07T14:45:34.968Z,25.20
2022-09-07T14:48:13.573Z,25.40
2022-09-07T14:50:54.030Z,25.50
2022-09-07T14:53:35.436Z,25.50
2022-09-07T14:56:10.055Z,25.40
2022-09-07T14:58:38.069Z,25.50
2022-09-07T15:04:00.810Z,25.20
2022-09-07T15:09:31.209Z,25.00
2022-09-07T15:12:18.179Z,25.00
2022-09-07T15:14:47.661Z,25.20
2022-09-07T15:20:32.307Z,25.40
2022-09-07T15:23:00.645Z,25.40
2022-09-07T15:25:30.629Z,25.40
2022-09-07T15:27:58.903Z,25.20
2022-09-07T15:30:27.381Z,25.20
2022-09-07T15:32:57.369Z,25.20
2022-09-07T15:35:25.989Z,25.30
2022-09-07T15:38:02.550Z,25.40
2022-09-07T15:41:10.470Z,25.50
2022-09-07T15:43:33.170Z,25.50
2022-09-07T15:46:03.510Z,25.20
2022-09-07T15:48:32.020Z,25.10
2022-09-07T15:52:04.687Z,25.30
2022-09-07T15:54:13.433Z,25.40
2022-09-07T15:56:44.415Z,25.40
2022-09-07T15:59:31.575Z,25.40
2022-09-07T16:02:00.011Z,25.40
2022-09-07T16:04:28.284Z,25.40
2022-09-07T16:06:56.365Z,25.40
2022-09-07T16:09:24.556Z,25.20
2022-09-07T16:11:54.538Z,25.30
2022-09-07T16:14:23.001Z,25.40
2022-09-07T16:19:41.003Z,25.50
2022-09-07T16:22:09.645Z,25.40
2022-09-07T16:24:38.486Z,25.20
2022-09-07T16:27:08.417Z,25.30
2022-09-07T16:29:36.820Z,25.20
2022-09-07T16:34:53.568Z,25.00
2022-09-07T16:37:22.011Z,25.00
2022-09-07T16:39:51.146Z,24.80
2022-09-07T16:42:20.993Z,24.70
2022-09-07T16:44:49.343Z,24.60
2022-09-07T16:47:17.532Z,24.50
2022-09-07T16:49:45.585Z,24.40
2022-09-07T16:52:13.562Z,24.20
2022-09-07T16:54:41.713Z,24.20
2022-09-07T16:57:10.172Z,24.10
2022-09-07T16:59:39.572Z,24.00
2022-09-07T17:02:07.839Z,24.00
2022-09-07T17:04:35.901Z,23.90
2022-09-07T17:07:03.951Z,23.80
2022-09-07T17:09:31.924Z,23.80
2022-09-07T17:12:00.014Z,23.80
2022-09-07T17:14:29.082Z,23.80
2022-09-07T17:16:59.026Z,23.70
2022-09-07T17:19:29.180Z,23.80
2022-09-07T17:21:59.703Z,23.80
2022-09-07T17:24:28.275Z,23.70
2022-09-07T17:26:56.746Z,23.70
2022-09-07T17:29:30.334Z,23.60
2022-09-07T17:34:49.967Z,23.40
2022-09-07T17:37:18.291Z,23.20
2022-09-07T17:39:46.338Z,23.10
2022-09-07T17:42:14.359Z,23.10
2022-09-07T17:44:42.479Z,23.00
2022-09-07T17:47:13.043Z,22.90
2022-09-07T17:49:41.048Z,22.80
2022-09-07T17:52:09.189Z,22.60
2022-09-07T17:54:37.208Z,22.50
2022-09-07T17:57:05.830Z,22.40
2022-09-07T18:02:24.464Z,22.30
2022-09-07T18:04:52.952Z,22.00
2022-09-07T18:07:21.168Z,22.00
2022-09-07T18:09:49.134Z,21.80
2022-09-07T18:12:17.272Z,21.60
2022-09-07T18:14:45.531Z,21.40
2022-09-07T18:17:13.611Z,21.30
2022-09-07T18:19:43.067Z,21.20
2022-09-07T18:22:11.125Z,21.00
2022-09-07T18:24:39.269Z,20.90
2022-09-07T18:27:07.826Z,20.70
2022-09-07T18:29:35.980Z,20.60
2022-09-07T18:32:08.730Z,20.70
2022-09-07T18:34:37.771Z,20.70
2022-09-07T18:37:08.204Z,20.50
2022-09-07T18:39:37.117Z,20.50
2022-09-07T18:42:05.431Z,20.50
2022-09-07T18:47:28.485Z,20.50
2022-09-07T18:49:58.044Z,20.40
2022-09-07T18:55:16.481Z,20.20
2022-09-07T18:57:44.935Z,20.10
2022-09-07T19:00:14.429Z,20.10
2022-09-07T19:02:42.917Z,20.10
2022-09-07T19:08:03.216Z,19.90
2022-09-07T19:10:34.821Z,19.80
2022-09-07T19:13:03.070Z,19.80
2022-09-07T19:15:36.807Z,19.70
2022-09-07T19:18:06.918Z,19.60
2022-09-07T19:20:35.355Z,19.50
2022-09-07T19:23:05.003Z,19.40
2022-09-07T19:25:33.136Z,19.30
2022-09-07T19:28:01.211Z,19.40
2022-09-07T19:30:30.415Z,19.40
2022-09-07T19:33:03.376Z,19.40
2022-09-07T19:35:36.175Z,19.40
2022-09-07T19:38:06.040Z,19.30
2022-09-07T19:40:34.393Z,19.40
2022-09-07T19:43:02.738Z,19.50
2022-09-07T19:45:30.825Z,19.30
2022-09-07T19:47:59.358Z,19.10
2022-09-07T19:50:27.700Z,19.10
2022-09-07T19:52:55.779Z,19.10
2022-09-07T19:55:25.336Z,19.00
2022-09-07T19:57:53.349Z,18.90
2022-09-07T20:00:22.613Z,18.90
2022-09-07T20:02:51.370Z,18.80
2022-09-07T20:05:20.090Z,18.70
2022-09-07T20:07:48.109Z,18.70
2022-09-07T20:10:16.583Z,18.70
2022-09-07T20:12:46.000Z,18.60
2022-09-07T20:15:14.072Z,18.60
2022-09-07T20:17:42.324Z,18.50
2022-09-07T20:20:11.065Z,18.50
2022-09-07T20:22:39.160Z,18.70
2022-09-07T20:25:12.528Z,18.50
2022-09-07T20:27:41.479Z,18.50
2022-09-07T20:30:12.482Z,18.40
2022-09-07T20:32:40.508Z,18.40
2022-09-07T20:35:09.190Z,18.40
2022-09-07T20:37:37.431Z,18.30
2022-09-07T20:40:06.627Z,18.40
2022-09-07T20:42:34.795Z,18.40
2022-09-07T20:45:03.503Z,18.30
2022-09-07T20:47:32.918Z,18.30
2022-09-07T20:50:01.347Z,18.30
2022-09-07T20:52:29.536Z,18.20
2022-09-07T20:54:57.735Z,18.20
2022-09-07T20:57:25.745Z,18.20
2022-09-07T20:59:53.903Z,18.20
2022-09-07T21:02:22.001Z,18.10
2022-09-07T21:04:51.579Z,18.00
2022-09-07T21:07:19.749Z,17.90
2022-09-07T21:09:47.865Z,18.00
2022-09-07T21:12:16.019Z,17.90
2022-09-07T21:14:45.771Z,18.00
2022-09-07T21:17:14.051Z,18.00
2022-09-07T21:19:42.215Z,17.90
2022-09-07T21:22:11.909Z,17.90
2022-09-07T21:24:40.024Z,17.90
2022-09-07T21:27:08.292Z,17.90
2022-09-07T21:29:36.318Z,17.90
2022-09-07T21:32:05.232Z,17.80
2022-09-07T21:34:33.563Z,17.80
2022-09-07T21:37:01.611Z,17.80
2022-09-07T21:39:31.196Z,17.90
2022-09-07T21:41:59.734Z,17.90
2022-09-07T21:44:28.103Z,17.90
2022-09-07T21:46:56.432Z,18.00
2022-09-07T21:49:24.830Z,17.90
2022-09-07T21:51:53.167Z,17.90
2022-09-07T21:54:21.223Z,17.90
2022-09-07T21:56:50.712Z,17.90
2022-09-07T21:59:19.023Z,17.90
2022-09-07T22:01:47.291Z,17.80
2022-09-07T22:04:15.379Z,17.80
2022-09-07T22:06:43.906Z,17.80
2022-09-07T22:09:11.938Z,17.90
2022-09-07T22:11:44.062Z,18.00
2022-09-07T22:14:16.557Z,18.00
2022-09-07T22:16:44.654Z,18.00
2022-09-07T22:19:13.092Z,18.20
2022-09-07T22:21:41.402Z,18.10
2022-09-07T22:24:12.483Z,18.00
2022-09-07T22:26:40.495Z,17.90
2022-09-07T22:29:11.598Z,17.80
2022-09-07T22:31:42.205Z,17.80
2022-09-07T22:34:11.258Z,17.90
2022-09-07T22:36:41.115Z,17.90
2022-09-07T22:39:11.882Z,18.00
2022-09-07T22:41:41.673Z,18.00
2022-09-07T22:44:13.635Z,17.90
2022-09-07T22:46:44.932Z,17.90
2022-09-07T22:49:15.098Z,17.80
2022-09-07T22:51:43.493Z,17.80
2022-09-07T22:54:11.955Z,17.80
2022-09-07T22:56:40.601Z,17.80
2022-09-07T22:59:10.616Z,17.80
2022-09-07T23:01:39.275Z,17.90
2022-09-07T23:04:10.806Z,17.90
2022-09-07T23:06:40.575Z,17.90
2022-09-07T23:09:10.407Z,17.80
2022-09-07T23:11:39.414Z,17.80
2022-09-07T23:14:11.194Z,17.90
2022-09-07T23:16:39.799Z,17.90
2022-09-07T23:19:12.081Z,17.90
2022-09-07T23:21:40.251Z,18.00
2022-09-07T23:24:09.003Z,18.00
2022-09-07T23:26:37.097Z,17.90
2022-09-07T23:29:06.125Z,17.80
2022-09-07T23:31:37.085Z,17.90
2022-09-07T23:34:05.575Z,17.80
2022-09-07T23:36:35.745Z,17.80
2022-09-07T23:39:04.332Z,17.80
2022-09-07T23:41:32.833Z,17.80
2022-09-07T23:44:02.202Z,17.80
2022-09-07T23:46:30.472Z,17.70
2022-09-07T23:48:58.972Z,17.90
2022-09-07T23:51:27.231Z,17.90
2022-09-07T23:53:57.180Z,17.80
2022-09-07T23:56:26.325Z,17.60
2022-09-07T23:58:54.504Z,17.50
